createdAt,value
2018-10-21T00:00:30.114Z,5.70
2018-10-21T00:02:57.544Z,5.50
2018-10-21T00:05:24.988Z,5.50
2018-10-21T00:07:52.418Z,5.60
2018-10-21T00:10:19.802Z,5.70
2018-10-21T00:12:47.235Z,5.70
2018-10-21T00:15:14.788Z,5.70
2018-10-21T00:17:42.218Z,5.70
2018-10-21T00:20:09.593Z,5.70
2018-10-21T00:22:37.027Z,5.50
2018-10-21T00:25:05.030Z,5.60
2018-10-21T00:27:32.457Z,5.70
2018-10-21T00:29:59.959Z,5.70
2018-10-21T00:32:59.670Z,5.60
2018-10-21T00:35:27.072Z,5.80
2018-10-21T00:37:54.446Z,5.80
2018-10-21T00:40:21.898Z,5.40
2018-10-21T00:42:49.307Z,5.30
2018-10-21T00:45:16.757Z,5.40
2018-10-21T00:47:44.270Z,5.50
2018-10-21T00:50:11.711Z,5.40
2018-10-21T00:52:39.238Z,5.50
2018-10-21T00:55:07.721Z,5.30
2018-10-21T00:57:35.243Z,5.30
2018-10-21T01:00:02.670Z,5.40
2018-10-21T01:02:30.166Z,5.20
2018-10-21T01:04:57.566Z,5.30
2018-10-21T01:07:25.003Z,5.30
2018-10-21T01:09:52.403Z,5.20
2018-10-21T01:12:19.843Z,5.40
2018-10-21T01:14:47.196Z,5.20
2018-10-21T01:17:14.733Z,5.40
2018-10-21T01:19:42.211Z,5.30
2018-10-21T01:22:09.629Z,5.10
2018-10-21T01:24:37.130Z,4.90
2018-10-21T01:27:05.350Z,5.10
2018-10-21T01:29:32.769Z,5.30
2018-10-21T01:32:00.223Z,5.40
2018-10-21T01:34:27.576Z,5.50
2018-10-21T01:36:55.124Z,5.50
2018-10-21T01:40:43.476Z,5.50
2018-10-21T01:43:12.622Z,5.40
2018-10-21T01:45:40.075Z,5.50
2018-10-21T01:48:08.688Z,5.60
2018-10-21T01:50:36.058Z,5.70
2018-10-21T01:53:04.575Z,5.80
2018-10-21T01:55:32.099Z,5.90
2018-10-21T01:57:59.918Z,5.90
2018-10-21T02:00:27.862Z,5.90
2018-10-21T02:02:55.883Z,5.60
2018-10-21T02:05:23.644Z,5.60
2018-10-21T02:07:51.089Z,5.70
2018-10-21T02:10:18.498Z,5.70
2018-10-21T02:12:45.996Z,5.70
2018-10-21T02:15:13.699Z,5.70
2018-10-21T02:17:41.386Z,5.60
2018-10-21T02:20:10.019Z,5.60
2018-10-21T02:22:37.728Z,5.60
2018-10-21T02:25:05.764Z,5.50
2018-10-21T02:27:33.135Z,5.50
2018-10-21T02:30:00.628Z,5.40
2018-10-21T02:32:28.094Z,5.50
2018-10-21T02:34:55.437Z,5.60
2018-10-21T02:37:22.870Z,5.50
2018-10-21T02:39:50.266Z,5.60
2018-10-21T02:42:17.766Z,5.60
2018-10-21T02:44:45.242Z,5.70
2018-10-21T02:47:12.720Z,5.70
2018-10-21T02:49:40.154Z,5.80
2018-10-21T02:52:10.602Z,5.80
2018-10-21T02:54:38.031Z,5.80
2018-10-21T02:57:07.559Z,5.90
2018-10-21T02:59:34.954Z,6.00
2018-10-21T03:02:02.532Z,5.80
2018-10-21T03:04:30.019Z,6.00
2018-10-21T03:06:57.406Z,6.10
2018-10-21T03:09:25.278Z,6.10
2018-10-21T03:11:52.698Z,6.20
2018-10-21T03:14:20.195Z,6.10
2018-10-21T03:16:47.611Z,6.10
2018-10-21T03:19:14.972Z,5.90
2018-10-21T03:21:42.429Z,5.90
2018-10-21T03:24:09.821Z,6.00
2018-10-21T03:26:37.249Z,6.10
2018-10-21T03:29:04.969Z,5.90
2018-10-21T03:31:32.353Z,6.00
2018-10-21T03:33:59.976Z,6.00
2018-10-21T03:36:27.212Z,6.10
2018-10-21T03:38:54.575Z,6.10
2018-10-21T03:41:21.942Z,6.10
2018-10-21T03:43:49.367Z,6.20
2018-10-21T03:46:16.861Z,6.20
2018-10-21T03:48:44.343Z,6.20
2018-10-21T03:51:12.347Z,6.20
2018-10-21T03:53:39.740Z,6.30
2018-10-21T03:56:07.259Z,6.40
2018-10-21T03:58:34.649Z,6.30
2018-10-21T04:01:02.096Z,6.10
2018-10-21T04:03:29.641Z,6.00
2018-10-21T04:05:57.124Z,6.00
2018-10-21T04:08:24.515Z,6.00
2018-10-21T04:10:51.931Z,6.20
2018-10-21T04:13:19.389Z,6.10
2018-10-21T04:15:46.810Z,6.10
2018-10-21T04:18:14.177Z,6.00
2018-10-21T04:20:41.607Z,6.10
2018-10-21T04:23:09.137Z,6.00
2018-10-21T04:25:37.612Z,6.00
2018-10-21T04:28:05.924Z,6.00
2018-10-21T04:30:34.549Z,6.00
2018-10-21T04:33:39.272Z,5.90
2018-10-21T04:36:08.080Z,5.90
2018-10-21T04:38:47.099Z,5.80
2018-10-21T04:41:14.541Z,5.90
2018-10-21T04:43:41.895Z,5.90
2018-10-21T04:46:09.342Z,5.90
2018-10-21T04:48:36.647Z,5.90
2018-10-21T04:51:04.772Z,5.70
2018-10-21T04:53:32.305Z,5.70
2018-10-21T04:55:59.663Z,5.60
2018-10-21T04:58:27.093Z,5.50
2018-10-21T05:00:54.534Z,5.40
2018-10-21T05:03:21.938Z,5.50
2018-10-21T05:05:49.294Z,5.40
2018-10-21T05:08:16.918Z,5.30
2018-10-21T05:10:44.302Z,5.40
2018-10-21T05:13:11.611Z,5.50
2018-10-21T05:15:39.730Z,5.40
2018-10-21T05:18:07.182Z,5.30
2018-10-21T05:20:34.808Z,5.20
2018-10-21T05:23:02.227Z,5.30
2018-10-21T05:25:29.621Z,5.30
2018-10-21T05:27:57.013Z,5.10
2018-10-21T05:30:30.908Z,5.10
2018-10-21T05:32:58.470Z,5.00
2018-10-21T05:35:25.840Z,5.10
2018-10-21T05:37:53.952Z,5.20
2018-10-21T05:40:22.121Z,4.90
2018-10-21T05:42:49.806Z,4.70
2018-10-21T05:45:19.679Z,4.70
2018-10-21T05:47:47.590Z,4.90
2018-10-21T06:03:59.152Z,5.00
2018-10-21T06:07:02.929Z,4.90
2018-10-21T06:09:31.182Z,5.00
2018-10-21T06:11:58.654Z,5.00
2018-10-21T06:14:26.090Z,5.20
2018-10-21T06:17:02.260Z,5.10
2018-10-21T06:19:34.956Z,5.20
2018-10-21T06:22:02.391Z,5.00
2018-10-21T06:24:29.780Z,4.90
2018-10-21T06:26:57.245Z,4.70
2018-10-21T06:29:24.721Z,4.80
2018-10-21T06:31:52.050Z,4.70
2018-10-21T06:34:19.630Z,4.80
2018-10-21T06:36:47.096Z,4.90
2018-10-21T06:39:14.509Z,5.00
2018-10-21T06:41:42.010Z,5.00
2018-10-21T06:44:09.494Z,5.20
2018-10-21T06:46:36.936Z,5.10
2018-10-21T06:49:04.846Z,5.10
2018-10-21T06:51:32.272Z,5.30
2018-10-21T06:53:59.745Z,5.20
2018-10-21T06:56:27.273Z,5.30
2018-10-21T06:58:54.585Z,5.50
2018-10-21T07:01:22.120Z,5.70
2018-10-21T07:03:49.516Z,6.10
2018-10-21T07:06:21.158Z,6.20
2018-10-21T07:08:49.818Z,6.10
2018-10-21T07:11:17.385Z,6.10
2018-10-21T07:13:44.857Z,6.00
2018-10-21T07:16:12.635Z,6.00
2018-10-21T07:18:40.614Z,6.20
2018-10-21T07:21:08.281Z,6.10
2018-10-21T07:23:35.782Z,6.00
2018-10-21T07:26:03.218Z,6.10
2018-10-21T07:28:30.652Z,6.50
2018-10-21T07:30:58.537Z,6.90
2018-10-21T07:33:25.938Z,7.00
2018-10-21T07:35:53.406Z,7.30
2018-10-21T07:38:20.979Z,7.40
2018-10-21T07:40:48.418Z,7.60
2018-10-21T07:43:15.941Z,7.90
2018-10-21T07:45:43.313Z,8.00
2018-10-21T07:48:10.723Z,8.80
2018-10-21T07:50:38.165Z,9.60
2018-10-21T07:53:05.635Z,9.80
2018-10-21T07:55:33.065Z,9.80
2018-10-21T07:58:00.529Z,10.00
2018-10-21T08:00:28.059Z,9.80
2018-10-21T08:02:55.471Z,9.70
2018-10-21T08:05:34.429Z,9.70
2018-10-21T08:08:12.249Z,9.70
2018-10-21T08:10:39.989Z,9.10
2018-10-21T08:13:08.630Z,9.20
2018-10-21T08:15:36.058Z,9.00
2018-10-21T08:18:03.719Z,9.20
2018-10-21T08:20:31.153Z,9.10
2018-10-21T08:22:58.603Z,9.20
2018-10-21T08:25:26.019Z,9.40
2018-10-21T08:27:53.525Z,9.60
2018-10-21T08:30:20.990Z,9.60
2018-10-21T08:32:48.605Z,9.70
2018-10-21T08:35:16.008Z,9.80
2018-10-21T08:37:43.434Z,10.20
2018-10-21T08:40:10.925Z,10.50
2018-10-21T08:42:38.359Z,10.70
2018-10-21T08:45:05.911Z,10.90
2018-10-21T08:47:33.374Z,11.10
2018-10-21T08:50:00.780Z,11.30
2018-10-21T08:52:28.289Z,11.60
2018-10-21T08:54:55.834Z,11.70
2018-10-21T08:57:23.240Z,11.90
2018-10-21T08:59:50.793Z,11.80
2018-10-21T09:02:18.312Z,11.80
2018-10-21T09:04:45.740Z,11.90
2018-10-21T09:07:13.260Z,11.70
2018-10-21T09:09:40.642Z,12.10
2018-10-21T09:12:08.142Z,12.50
2018-10-21T09:14:35.561Z,12.80
2018-10-21T09:17:03.086Z,12.80
2018-10-21T09:19:30.551Z,13.00
2018-10-21T09:21:57.968Z,13.60
2018-10-21T09:24:25.376Z,13.90
2018-10-21T09:26:52.826Z,14.00
2018-10-21T09:29:20.634Z,14.20
2018-10-21T09:31:48.122Z,14.50
2018-10-21T09:34:15.689Z,14.90
2018-10-21T09:36:43.190Z,15.10
2018-10-21T09:39:13.377Z,15.40
2018-10-21T09:41:41.318Z,15.60
2018-10-21T09:44:09.600Z,15.70
2018-10-21T09:46:37.113Z,15.60
2018-10-21T09:49:05.114Z,15.70
2018-10-21T09:51:32.494Z,15.80
2018-10-21T09:53:59.843Z,15.50
2018-10-21T09:56:27.402Z,15.70
2018-10-21T09:58:54.997Z,15.50
2018-10-21T10:01:28.135Z,15.60
2018-10-21T10:03:55.676Z,15.90
2018-10-21T10:06:23.065Z,16.50
2018-10-21T10:08:50.421Z,16.50
2018-10-21T10:11:17.994Z,16.60
2018-10-21T10:13:45.399Z,16.40
2018-10-21T10:16:12.838Z,16.60
2018-10-21T10:18:40.492Z,16.80
2018-10-21T10:21:07.819Z,16.90
2018-10-21T10:23:35.394Z,16.80
2018-10-21T10:26:02.915Z,17.30
2018-10-21T10:28:30.400Z,17.60
2018-10-21T10:30:57.932Z,17.90
2018-10-21T10:33:25.403Z,18.10
2018-10-21T10:35:52.785Z,18.10
2018-10-21T10:38:20.190Z,17.80
2018-10-21T10:40:47.684Z,17.30
2018-10-21T10:43:15.183Z,17.60
2018-10-21T10:45:42.559Z,17.90
2018-10-21T10:48:09.979Z,18.20
2018-10-21T10:50:37.434Z,18.10
2018-10-21T10:53:05.059Z,17.70
2018-10-21T10:55:38.134Z,17.10
2018-10-21T10:58:05.530Z,16.70
2018-10-21T11:00:32.982Z,16.20
2018-10-21T11:03:00.474Z,15.90
2018-10-21T11:05:27.866Z,15.70
2018-10-21T11:07:55.274Z,15.30
2018-10-21T11:10:22.659Z,15.30
2018-10-21T11:12:50.103Z,15.20
2018-10-21T11:15:17.549Z,15.10
2018-10-21T11:17:45.055Z,15.10
2018-10-21T11:20:12.412Z,15.50
2018-10-21T11:22:39.852Z,16.10
2018-10-21T11:25:08.326Z,16.70
2018-10-21T11:27:36.156Z,17.40
2018-10-21T11:30:04.392Z,17.60
2018-10-21T11:32:31.857Z,16.50
2018-10-21T11:34:59.228Z,16.60
2018-10-21T11:37:26.846Z,16.30
2018-10-21T11:39:54.358Z,15.90
2018-10-21T11:42:23.010Z,16.50
2018-10-21T11:44:52.244Z,17.00
2018-10-21T11:47:23.052Z,17.40
2018-10-21T11:49:50.552Z,18.00
2018-10-21T11:52:18.120Z,18.20
2018-10-21T11:54:45.546Z,18.00
2018-10-21T11:57:12.876Z,18.60
2018-10-21T11:59:40.346Z,18.70
2018-10-21T12:02:07.889Z,18.10
2018-10-21T12:04:35.365Z,18.40
2018-10-21T12:07:02.789Z,18.80
2018-10-21T12:09:30.216Z,18.80
2018-10-21T12:11:57.677Z,18.70
2018-10-21T12:14:25.315Z,18.70
2018-10-21T12:16:52.733Z,18.60
2018-10-21T12:19:21.159Z,19.10
2018-10-21T12:21:48.595Z,19.70
2018-10-21T12:24:16.233Z,20.10
2018-10-21T12:40:30.989Z,19.90
2018-10-21T12:46:36.711Z,19.80
2018-10-21T12:49:31.123Z,19.70
2018-10-21T12:56:49.813Z,20.10
2018-10-21T13:12:12.899Z,19.90
2018-10-21T13:15:42.577Z,19.50
2018-10-21T13:19:05.021Z,19.20
2018-10-21T13:22:27.387Z,18.60
2018-10-21T13:29:03.830Z,18.70
2018-10-21T13:32:26.694Z,19.20
2018-10-21T13:35:40.604Z,19.20
2018-10-21T13:38:40.527Z,19.50
2018-10-21T13:41:42.694Z,19.30
2018-10-21T13:57:02.565Z,19.80
2018-10-21T14:03:41.079Z,24.00
2018-10-21T14:06:58.734Z,23.20
2018-10-21T14:11:16.568Z,23.40
2018-10-21T14:18:53.370Z,23.10
2018-10-21T14:25:25.720Z,23.30
2018-10-21T14:28:36.672Z,23.20
2018-10-21T14:31:44.686Z,22.20
2018-10-21T14:34:44.215Z,22.10
2018-10-21T14:37:40.783Z,21.10
2018-10-21T14:49:58.585Z,20.30
2018-10-21T14:52:53.559Z,20.60
2018-10-21T14:59:37.379Z,17.80
2018-10-21T15:05:47.505Z,17.60
2018-10-21T15:12:57.557Z,17.20
2018-10-21T15:17:30.485Z,17.60
2018-10-21T15:27:30.513Z,20.40
2018-10-21T15:30:32.397Z,19.60
2018-10-21T15:44:37.893Z,16.10
2018-10-21T15:47:34.412Z,15.80
2018-10-21T15:52:17.214Z,15.50
2018-10-21T15:54:44.532Z,15.30
2018-10-21T15:57:12.065Z,15.20
2018-10-21T15:59:39.437Z,15.10
2018-10-21T16:02:06.952Z,15.00
2018-10-21T16:04:34.393Z,14.90
2018-10-21T16:07:01.777Z,14.70
2018-10-21T16:09:29.105Z,14.50
2018-10-21T16:11:56.597Z,14.50
2018-10-21T16:14:24.057Z,14.30
2018-10-21T16:16:51.454Z,14.10
2018-10-21T16:19:18.901Z,14.00
2018-10-21T16:21:46.344Z,14.00
2018-10-21T16:24:13.838Z,14.00
2018-10-21T16:26:41.352Z,13.70
2018-10-21T16:29:08.833Z,13.60
2018-10-21T16:31:36.358Z,13.30
2018-10-21T16:34:04.214Z,13.20
2018-10-21T16:36:31.667Z,13.10
2018-10-21T16:38:59.890Z,13.10
2018-10-21T16:41:29.229Z,13.00
2018-10-21T16:43:57.279Z,12.80
2018-10-21T16:46:25.077Z,12.70
2018-10-21T16:48:52.471Z,12.70
2018-10-21T16:51:20.045Z,12.60
2018-10-21T16:53:47.552Z,12.40
2018-10-21T16:56:15.076Z,12.30
2018-10-21T16:58:42.533Z,12.20
2018-10-21T17:01:10.117Z,12.20
2018-10-21T17:03:37.513Z,12.00
2018-10-21T17:06:05.010Z,12.00
2018-10-21T17:08:32.470Z,11.90
2018-10-21T17:11:00.003Z,11.80
2018-10-21T17:13:27.454Z,11.80
2018-10-21T17:15:54.998Z,11.70
2018-10-21T17:18:22.520Z,11.70
2018-10-21T17:20:49.998Z,11.70
2018-10-21T17:23:17.406Z,11.60
2018-10-21T17:25:44.812Z,11.60
2018-10-21T17:28:12.388Z,11.60
2018-10-21T17:30:39.894Z,11.50
2018-10-21T17:33:07.194Z,11.30
2018-10-21T17:35:34.585Z,11.30
2018-10-21T17:38:05.113Z,11.20
2018-10-21T17:40:32.697Z,11.10
2018-10-21T17:43:00.194Z,11.10
2018-10-21T17:45:27.702Z,11.10
2018-10-21T17:47:55.240Z,10.90
2018-10-21T17:57:38.124Z,10.70
2018-10-21T18:02:01.473Z,10.60
2018-10-21T18:04:30.176Z,10.40
2018-10-21T18:06:57.668Z,10.30
2018-10-21T18:09:25.203Z,10.20
2018-10-21T18:11:52.767Z,10.20
2018-10-21T18:14:20.269Z,10.10
2018-10-21T18:16:47.912Z,10.00
2018-10-21T18:19:15.508Z,10.00
2018-10-21T18:21:42.869Z,9.90
2018-10-21T18:24:10.399Z,9.90
2018-10-21T18:26:37.839Z,9.60
2018-10-21T18:29:06.148Z,9.60
2018-10-21T18:31:33.690Z,9.70
2018-10-21T18:34:01.360Z,9.80
2018-10-21T18:59:03.220Z,9.40
2018-10-21T19:02:12.372Z,9.50
2018-10-21T19:05:10.363Z,9.50
2018-10-21T19:09:56.155Z,9.50
2018-10-21T19:16:12.040Z,9.30
2018-10-21T19:19:06.680Z,9.30
2018-10-21T19:22:57.466Z,9.30
2018-10-21T19:26:17.169Z,9.40
2018-10-21T19:57:06.758Z,8.90
2018-10-21T20:00:14.058Z,8.80
2018-10-21T20:06:26.510Z,8.60
2018-10-21T20:09:25.682Z,8.60
2018-10-21T20:12:30.910Z,8.50
2018-10-21T20:20:41.406Z,8.40
2018-10-21T20:23:34.145Z,8.20
2018-10-21T20:26:37.940Z,8.00
2018-10-21T20:29:33.380Z,8.00
2018-10-21T20:32:59.379Z,8.00
2018-10-21T20:36:04.848Z,8.00
2018-10-21T20:39:42.624Z,7.80
2018-10-21T20:46:12.060Z,7.50
2018-10-21T20:49:38.375Z,7.40
2018-10-21T20:52:42.195Z,7.10
2018-10-21T20:55:43.366Z,7.00
2018-10-21T20:58:37.831Z,6.90
2018-10-21T21:01:34.913Z,6.90
2018-10-21T21:04:02.559Z,6.90
2018-10-21T21:06:29.951Z,6.90
2018-10-21T21:08:58.614Z,6.80
2018-10-21T21:11:25.977Z,6.80
2018-10-21T21:13:53.542Z,6.80
2018-10-21T21:16:20.949Z,6.70
2018-10-21T21:18:48.343Z,6.70
2018-10-21T21:21:15.716Z,6.70
2018-10-21T21:23:43.215Z,6.80
2018-10-21T21:26:10.677Z,6.80
2018-10-21T21:28:38.228Z,6.70
2018-10-21T21:31:05.753Z,6.70
2018-10-21T21:33:33.065Z,6.60
2018-10-21T21:36:01.570Z,6.30
2018-10-21T21:38:29.021Z,6.30
2018-10-21T21:40:56.647Z,6.20
2018-10-21T21:43:24.763Z,6.20
2018-10-21T21:45:52.511Z,6.10
2018-10-21T21:48:20.108Z,6.10
2018-10-21T21:50:47.538Z,6.30
2018-10-21T21:53:15.009Z,6.30
2018-10-21T21:55:42.524Z,6.40
2018-10-21T21:58:10.000Z,6.40
2018-10-21T22:00:37.383Z,6.40
2018-10-21T22:03:04.871Z,6.30
2018-10-21T22:05:32.247Z,6.40
2018-10-21T22:07:59.638Z,6.40
2018-10-21T22:10:27.054Z,6.30
2018-10-21T22:12:54.428Z,6.40
2018-10-21T22:15:21.924Z,6.30
2018-10-21T22:17:49.389Z,6.30
2018-10-21T22:20:16.731Z,6.20
2018-10-21T22:22:44.203Z,6.10
2018-10-21T22:25:11.715Z,6.00
2018-10-21T22:27:39.080Z,6.10
2018-10-21T22:30:08.187Z,6.00
2018-10-21T22:32:35.681Z,6.00
2018-10-21T22:35:03.446Z,6.00
2018-10-21T22:37:30.884Z,5.60
2018-10-21T22:39:58.289Z,5.30
2018-10-21T22:42:25.686Z,5.40
2018-10-21T22:44:53.469Z,5.60
2018-10-21T22:47:20.969Z,5.50
2018-10-21T22:49:48.396Z,5.40
2018-10-21T22:52:15.927Z,5.30
2018-10-21T22:54:43.317Z,5.30
2018-10-21T22:57:18.025Z,5.10
2018-10-21T22:59:46.558Z,4.90
2018-10-21T23:02:14.485Z,4.80
2018-10-21T23:04:47.217Z,4.80
2018-10-21T23:07:14.620Z,4.70
2018-10-21T23:09:42.137Z,4.60
2018-10-21T23:12:09.595Z,4.70
2018-10-21T23:14:37.219Z,4.80
2018-10-21T23:17:04.863Z,4.70
2018-10-21T23:19:40.049Z,5.00
2018-10-21T23:22:07.564Z,5.00
2018-10-21T23:24:35.811Z,4.90
2018-10-21T23:27:03.266Z,4.90
2018-10-21T23:29:30.725Z,4.70
2018-10-21T23:31:58.399Z,4.20
2018-10-21T23:34:26.406Z,4.10
2018-10-21T23:36:53.933Z,3.90
2018-10-21T23:39:21.401Z,3.90
2018-10-21T23:41:48.841Z,4.20
2018-10-21T23:44:16.432Z,4.30
2018-10-21T23:46:43.844Z,4.30
2018-10-21T23:49:11.230Z,4.50
2018-10-21T23:51:38.618Z,4.40
2018-10-21T23:54:06.147Z,4.00
2018-10-21T23:56:33.750Z,4.20
2018-10-21T23:59:01.180Z,4.00
